createdAt,value
2019-04-28T00:02:31.833Z,98.46
2019-04-28T00:07:36.351Z,98.42
2019-04-28T00:12:41.309Z,98.49
2019-04-28T00:17:45.957Z,98.29
2019-04-28T00:22:55.110Z,96.25
2019-04-28T00:27:59.528Z,95.26
2019-04-28T00:33:05.147Z,94.86
2019-04-28T00:38:11.327Z,94.45
2019-04-28T00:43:16.826Z,96.39
2019-04-28T00:48:21.833Z,97.78
2019-04-28T00:53:26.252Z,97.32
2019-04-28T00:58:31.892Z,98.49
2019-04-28T01:03:37.364Z,99.41
2019-04-28T01:08:42.042Z,100.00
2019-04-28T01:13:46.739Z,100.00
2019-04-28T01:19:04.451Z,100.00
2019-04-28T01:24:09.512Z,100.00
2019-04-28T01:29:14.322Z,100.00
2019-04-28T01:34:22.859Z,100.00
2019-04-28T01:39:27.390Z,100.00
2019-04-28T01:44:31.859Z,100.00
2019-04-28T01:49:36.387Z,100.00
2019-04-28T01:54:40.878Z,100.00
2019-04-28T01:59:45.453Z,100.00
2019-04-28T02:04:50.032Z,100.00
2019-04-28T02:09:55.507Z,100.00
2019-04-28T02:15:01.028Z,100.00
2019-04-28T02:20:10.421Z,100.00
2019-04-28T02:25:15.966Z,100.00
2019-04-28T02:30:26.553Z,100.00
2019-04-28T02:35:26.810Z,100.00
2019-04-28T02:40:31.342Z,100.00
2019-04-28T02:45:41.197Z,99.69
2019-04-28T02:50:52.444Z,99.37
2019-04-28T02:56:01.138Z,99.11
2019-04-28T03:01:15.217Z,99.06
2019-04-28T03:06:11.959Z,99.13
2019-04-28T03:11:16.537Z,99.49
2019-04-28T03:16:23.175Z,98.64
2019-04-28T03:21:27.270Z,97.63
2019-04-28T03:26:43.383Z,96.31
2019-04-28T03:32:22.751Z,95.39
2019-04-28T03:37:11.276Z,94.74
2019-04-28T03:42:16.519Z,94.05
2019-04-28T03:47:21.638Z,93.44
2019-04-28T03:52:26.132Z,92.63
2019-04-28T03:57:31.378Z,92.16
2019-04-28T04:02:36.028Z,93.27
2019-04-28T04:07:43.133Z,94.23
2019-04-28T04:12:50.668Z,94.84
2019-04-28T04:18:02.150Z,95.76
2019-04-28T04:23:06.593Z,95.75
2019-04-28T04:28:12.716Z,94.86
2019-04-28T04:33:17.212Z,93.32
2019-04-28T04:38:21.957Z,93.06
2019-04-28T04:43:26.466Z,93.40
2019-04-28T04:48:31.270Z,93.87
2019-04-28T04:53:37.749Z,94.13
2019-04-28T04:58:42.209Z,94.02
2019-04-28T05:03:54.412Z,93.64
2019-04-28T05:09:00.933Z,93.67
2019-04-28T05:14:09.651Z,92.83
2019-04-28T05:19:13.819Z,92.38
2019-04-28T05:24:36.320Z,91.86
2019-04-28T05:29:40.790Z,91.57
2019-04-28T05:34:46.556Z,90.77
2019-04-28T05:39:52.501Z,90.45
2019-04-28T05:44:57.157Z,89.96
2019-04-28T05:50:12.306Z,88.74
2019-04-28T05:55:24.754Z,87.39
2019-04-28T06:00:41.715Z,86.42
2019-04-28T06:05:45.747Z,85.73
2019-04-28T06:10:50.174Z,84.84
2019-04-28T06:15:54.667Z,83.34
2019-04-28T06:20:59.245Z,83.38
2019-04-28T06:26:03.806Z,82.91
2019-04-28T06:31:08.405Z,83.27
2019-04-28T06:36:12.905Z,82.91
2019-04-28T06:41:17.327Z,82.76
2019-04-28T06:46:21.926Z,83.09
2019-04-28T06:51:26.459Z,83.48
2019-04-28T06:56:30.880Z,83.44
2019-04-28T07:01:35.504Z,82.88
2019-04-28T07:06:39.999Z,82.70
2019-04-28T07:11:44.433Z,81.81
2019-04-28T07:16:48.882Z,81.59
2019-04-28T07:22:00.880Z,80.03
2019-04-28T07:27:06.317Z,78.73
2019-04-28T07:32:11.176Z,78.54
2019-04-28T07:37:15.926Z,77.37
2019-04-28T07:42:20.691Z,77.59
2019-04-28T07:47:25.219Z,75.56
2019-04-28T07:52:31.311Z,76.05
2019-04-28T07:57:35.972Z,75.18
2019-04-28T08:02:40.440Z,75.49
2019-04-28T08:07:45.202Z,76.24
2019-04-28T08:12:49.772Z,75.08
2019-04-28T08:17:54.543Z,75.06
2019-04-28T08:23:00.099Z,73.54
2019-04-28T08:28:04.888Z,74.88
2019-04-28T08:33:17.239Z,73.21
2019-04-28T08:38:21.735Z,71.30
2019-04-28T08:43:26.369Z,70.53
2019-04-28T08:48:30.892Z,70.73
2019-04-28T08:53:35.315Z,68.45
2019-04-28T08:58:39.791Z,68.97
2019-04-28T09:03:45.341Z,67.54
2019-04-28T09:08:49.874Z,66.75
2019-04-28T09:13:54.531Z,66.75
2019-04-28T09:18:59.123Z,66.92
2019-04-28T09:24:03.723Z,64.73
2019-04-28T09:29:08.235Z,65.91
2019-04-28T09:34:12.811Z,64.48
2019-04-28T09:39:18.986Z,65.74
2019-04-28T09:44:23.442Z,63.82
2019-04-28T09:49:28.034Z,63.20
2019-04-28T09:54:32.524Z,63.14
2019-04-28T09:59:37.049Z,63.75
2019-04-28T10:04:42.305Z,61.76
2019-04-28T10:09:47.849Z,62.07
2019-04-28T10:14:52.409Z,61.81
2019-04-28T10:19:56.937Z,61.80
2019-04-28T10:25:01.539Z,60.61
2019-04-28T10:30:09.547Z,60.79
2019-04-28T10:35:14.315Z,59.93
2019-04-28T10:40:23.584Z,60.64
2019-04-28T10:45:29.694Z,60.63
2019-04-28T10:50:34.199Z,59.88
2019-04-28T10:55:38.651Z,60.38
2019-04-28T11:00:43.352Z,59.82
2019-04-28T11:05:47.940Z,58.61
2019-04-28T11:10:53.134Z,58.97
2019-04-28T11:15:57.805Z,58.32
2019-04-28T11:21:02.367Z,58.60
2019-04-28T11:26:06.881Z,58.97
2019-04-28T11:31:11.494Z,58.30
2019-04-28T11:36:17.647Z,59.05
2019-04-28T11:41:22.151Z,58.57
2019-04-28T11:46:27.947Z,58.32
2019-04-28T11:51:32.646Z,58.55
2019-04-28T11:56:41.647Z,59.57
2019-04-28T12:01:43.580Z,58.52
2019-04-28T12:06:48.241Z,58.00
2019-04-28T12:12:00.851Z,57.79
2019-04-28T12:17:23.629Z,57.40
2019-04-28T12:22:28.467Z,59.10
2019-04-28T12:27:32.954Z,58.38
2019-04-28T12:32:40.406Z,57.94
2019-04-28T12:37:44.900Z,58.66
2019-04-28T12:42:49.366Z,58.87
2019-04-28T12:47:54.000Z,59.50
2019-04-28T12:52:59.731Z,59.62
2019-04-28T12:58:05.034Z,58.75
2019-04-28T13:03:26.512Z,59.63
2019-04-28T13:08:33.560Z,59.82
2019-04-28T13:13:39.847Z,61.42
2019-04-28T13:18:44.400Z,62.52
2019-04-28T13:23:49.149Z,63.51
2019-04-28T13:28:53.692Z,63.19
2019-04-28T13:34:00.135Z,62.99
2019-04-28T13:39:09.534Z,62.88
2019-04-28T13:44:16.052Z,63.05
2019-04-28T13:49:23.323Z,63.01
2019-04-28T13:54:29.106Z,63.98
2019-04-28T13:59:34.027Z,63.97
2019-04-28T14:04:42.116Z,63.90
2019-04-28T14:09:46.620Z,66.83
2019-04-28T14:14:53.960Z,69.87
2019-04-28T14:19:58.509Z,73.87
2019-04-28T14:25:04.938Z,73.42
2019-04-28T14:30:09.824Z,75.21
2019-04-28T14:35:14.837Z,78.08
2019-04-28T14:40:19.447Z,76.95
2019-04-28T14:45:24.893Z,79.17
2019-04-28T14:50:29.341Z,79.23
2019-04-28T14:55:34.028Z,80.20
2019-04-28T15:00:40.445Z,82.70
2019-04-28T15:05:46.727Z,81.17
2019-04-28T15:11:05.326Z,81.36
2019-04-28T15:16:09.870Z,81.83
2019-04-28T15:21:14.698Z,82.98
2019-04-28T15:26:19.320Z,85.06
2019-04-28T15:31:23.985Z,85.69
2019-04-28T15:36:28.723Z,86.55
2019-04-28T15:41:33.164Z,87.51
2019-04-28T15:46:37.678Z,88.93
2019-04-28T15:51:42.376Z,91.09
2019-04-28T15:56:47.674Z,91.88
2019-04-28T16:01:52.272Z,91.35
2019-04-28T16:06:58.380Z,91.68
2019-04-28T16:12:03.115Z,92.45
2019-04-28T16:17:07.714Z,92.07
2019-04-28T16:22:12.597Z,94.00
2019-04-28T16:27:17.034Z,94.79
2019-04-28T16:32:21.611Z,95.19
2019-04-28T16:37:38.550Z,95.08
2019-04-28T16:42:36.093Z,95.38
2019-04-28T16:47:40.795Z,96.18
2019-04-28T16:52:45.402Z,96.44
2019-04-28T16:58:00.301Z,95.90
2019-04-28T17:03:05.127Z,95.94
2019-04-28T17:08:09.732Z,96.40
2019-04-28T17:13:15.544Z,97.98
2019-04-28T17:18:21.260Z,98.25
2019-04-28T17:23:25.988Z,98.66
2019-04-28T17:28:30.665Z,98.49
2019-04-28T17:33:35.300Z,98.97
2019-04-28T17:38:40.054Z,98.25
2019-04-28T17:43:44.779Z,98.24
2019-04-28T17:48:56.945Z,98.56
2019-04-28T17:54:03.588Z,98.95
2019-04-28T17:59:08.329Z,99.50
2019-04-28T18:04:23.750Z,99.82
2019-04-28T18:09:29.678Z,100.00
2019-04-28T18:14:34.837Z,100.00
2019-04-28T18:19:39.371Z,100.00
2019-04-28T18:24:44.848Z,100.00
2019-04-28T18:29:49.395Z,100.00
2019-04-28T18:35:07.580Z,100.00
2019-04-28T18:40:17.223Z,100.00
2019-04-28T18:45:21.932Z,100.00
2019-04-28T18:50:26.556Z,100.00
2019-04-28T18:55:31.065Z,100.00
2019-04-28T19:00:37.342Z,100.00
2019-04-28T19:05:43.585Z,100.00
2019-04-28T19:10:50.851Z,100.00
2019-04-28T19:16:07.330Z,100.00
2019-04-28T19:21:11.919Z,100.00
2019-04-28T19:26:16.619Z,100.00
2019-04-28T19:31:22.215Z,100.00
2019-04-28T19:36:26.810Z,100.00
2019-04-28T19:41:31.237Z,100.00
2019-04-28T19:46:35.823Z,100.00
2019-04-28T19:51:40.363Z,100.00
2019-04-28T19:56:46.639Z,100.00
2019-04-28T20:01:52.412Z,100.00
2019-04-28T20:06:57.028Z,100.00
2019-04-28T20:12:01.495Z,100.00
2019-04-28T20:17:06.121Z,100.00
2019-04-28T20:22:10.791Z,100.00
2019-04-28T20:27:15.408Z,100.00
2019-04-28T20:32:19.845Z,100.00
2019-04-28T20:37:28.338Z,100.00
2019-04-28T20:42:47.382Z,100.00
2019-04-28T20:47:51.967Z,100.00
2019-04-28T20:52:56.625Z,100.00
2019-04-28T20:58:02.607Z,100.00
2019-04-28T21:03:08.153Z,100.00
2019-04-28T21:08:12.818Z,100.00
2019-04-28T21:13:17.355Z,100.00
2019-04-28T21:18:21.802Z,100.00
2019-04-28T21:23:27.450Z,100.00
2019-04-28T21:28:31.916Z,100.00
2019-04-28T21:33:36.421Z,100.00
2019-04-28T21:38:40.913Z,100.00
2019-04-28T21:43:52.817Z,100.00
2019-04-28T21:48:59.134Z,100.00
2019-04-28T21:54:03.571Z,100.00
2019-04-28T21:59:08.061Z,100.00
2019-04-28T22:04:12.627Z,100.00
2019-04-28T22:09:18.892Z,100.00
2019-04-28T22:14:23.516Z,100.00
2019-04-28T22:19:28.129Z,100.00
2019-04-28T22:24:40.160Z,100.00
2019-04-28T22:29:44.577Z,100.00
2019-04-28T22:34:49.032Z,100.00
2019-04-28T22:39:53.453Z,100.00
2019-04-28T22:44:57.954Z,100.00
2019-04-28T22:50:02.633Z,100.00
2019-04-28T22:55:12.615Z,100.00
2019-04-28T23:00:36.803Z,100.00
2019-04-28T23:05:42.049Z,100.00
2019-04-28T23:10:47.619Z,100.00
2019-04-28T23:15:52.252Z,100.00
2019-04-28T23:21:05.001Z,100.00
2019-04-28T23:26:09.615Z,100.00
2019-04-28T23:31:14.173Z,100.00
2019-04-28T23:36:18.700Z,100.00
2019-04-28T23:41:30.887Z,100.00
2019-04-28T23:46:53.418Z,100.00
2019-04-28T23:52:15.659Z,100.00
2019-04-28T23:57:20.340Z,100.00
